sensor_id;sensor_type;location;lat;lon;timestamp;temperature;humidity
10889;DHT22;5497;51.388;6.780;2022-11-20T00:01:28;-0.50;99.90
10889;DHT22;5497;51.388;6.780;2022-11-20T00:03:55;-0.50;99.90
10889;DHT22;5497;51.388;6.780;2022-11-20T00:06:23;-0.50;99.90
10889;DHT22;5497;51.388;6.780;2022-11-20T00:08:50;-0.50;99.90
10889;DHT22;5497;51.388;6.780;2022-11-20T00:11:17;-0.40;99.90
10889;DHT22;5497;51.388;6.780;2022-11-20T00:13:45;-0.40;99.90
10889;DHT22;5497;51.388;6.780;2022-11-20T00:16:13;-0.20;99.90
10889;DHT22;5497;51.388;6.780;2022-11-20T00:18:42;-0.30;99.90
10889;DHT22;5497;51.388;6.780;2022-11-20T00:21:10;-0.10;99.90
10889;DHT22;5497;51.388;6.780;2022-11-20T00:23:37;-0.10;99.90
10889;DHT22;5497;51.388;6.780;2022-11-20T00:26:04;-0.10;99.90
10889;DHT22;5497;51.388;6.780;2022-11-20T00:28:31;0.00;99.90
10889;DHT22;5497;51.388;6.780;2022-11-20T00:31:02;0.00;99.90
10889;DHT22;5497;51.388;6.780;2022-11-20T00:33:30;0.10;99.90
10889;DHT22;5497;51.388;6.780;2022-11-20T00:36:02;0.10;99.90
10889;DHT22;5497;51.388;6.780;2022-11-20T00:38:29;0.20;99.90
10889;DHT22;5497;51.388;6.780;2022-11-20T00:40:56;0.30;99.90
10889;DHT22;5497;51.388;6.780;2022-11-20T00:43:24;0.30;99.90
10889;DHT22;5497;51.388;6.780;2022-11-20T00:45:55;0.40;99.90
10889;DHT22;5497;51.388;6.780;2022-11-20T00:48:22;0.10;99.90
10889;DHT22;5497;51.388;6.780;2022-11-20T00:50:49;0.50;99.90
10889;DHT22;5497;51.388;6.780;2022-11-20T00:53:19;0.50;99.90
10889;DHT22;5497;51.388;6.780;2022-11-20T00:55:52;0.60;99.90
10889;DHT22;5497;51.388;6.780;2022-11-20T00:58:19;0.60;99.90
10889;DHT22;5497;51.388;6.780;2022-11-20T01:00:46;0.70;99.90
10889;DHT22;5497;51.388;6.780;2022-11-20T01:03:13;0.80;99.90
10889;DHT22;5497;51.388;6.780;2022-11-20T01:05:40;0.90;99.90
10889;DHT22;5497;51.388;6.780;2022-11-20T01:08:07;0.90;99.90
10889;DHT22;5497;51.388;6.780;2022-11-20T01:10:35;1.10;99.90
10889;DHT22;5497;51.388;6.780;2022-11-20T01:13:02;1.10;99.90
10889;DHT22;5497;51.388;6.780;2022-11-20T01:16:01;1.20;99.90
10889;DHT22;5497;51.388;6.780;2022-11-20T01:18:28;1.30;99.90
10889;DHT22;5497;51.388;6.780;2022-11-20T01:20:55;1.30;99.90
10889;DHT22;5497;51.388;6.780;2022-11-20T01:23:26;1.40;99.90
10889;DHT22;5497;51.388;6.780;2022-11-20T01:25:54;1.50;99.90
10889;DHT22;5497;51.388;6.780;2022-11-20T01:28:21;1.60;99.90
10889;DHT22;5497;51.388;6.780;2022-11-20T01:30:48;1.60;99.90
10889;DHT22;5497;51.388;6.780;2022-11-20T01:33:15;1.60;99.90
10889;DHT22;5497;51.388;6.780;2022-11-20T01:35:42;1.70;99.90
10889;DHT22;5497;51.388;6.780;2022-11-20T01:38:08;1.80;99.90
10889;DHT22;5497;51.388;6.780;2022-11-20T01:40:35;1.80;99.90
10889;DHT22;5497;51.388;6.780;2022-11-20T01:43:09;1.90;99.90
10889;DHT22;5497;51.388;6.780;2022-11-20T01:45:51;2.00;99.90
10889;DHT22;5497;51.388;6.780;2022-11-20T01:48:19;2.00;99.90
10889;DHT22;5497;51.388;6.780;2022-11-20T01:50:48;2.10;99.90
10889;DHT22;5497;51.388;6.780;2022-11-20T01:53:16;2.10;99.90
10889;DHT22;5497;51.388;6.780;2022-11-20T01:55:45;2.20;99.90
10889;DHT22;5497;51.388;6.780;2022-11-20T01:58:15;2.10;99.90
10889;DHT22;5497;51.388;6.780;2022-11-20T02:00:43;2.10;99.90
10889;DHT22;5497;51.388;6.780;2022-11-20T02:03:11;2.10;99.90
10889;DHT22;5497;51.388;6.780;2022-11-20T02:05:40;2.10;99.90
10889;DHT22;5497;51.388;6.780;2022-11-20T02:08:08;2.10;99.90
10889;DHT22;5497;51.388;6.780;2022-11-20T02:10:35;2.10;99.90
10889;DHT22;5497;51.388;6.780;2022-11-20T02:13:02;2.10;99.90
10889;DHT22;5497;51.388;6.780;2022-11-20T02:15:48;2.20;99.90
10889;DHT22;5497;51.388;6.780;2022-11-20T02:18:16;2.30;99.90
10889;DHT22;5497;51.388;6.780;2022-11-20T02:20:44;2.30;99.90
10889;DHT22;5497;51.388;6.780;2022-11-20T02:23:12;2.30;99.90
10889;DHT22;5497;51.388;6.780;2022-11-20T02:25:42;2.30;99.90
10889;DHT22;5497;51.388;6.780;2022-11-20T02:28:09;2.40;99.90
10889;DHT22;5497;51.388;6.780;2022-11-20T02:30:36;2.40;99.90
10889;DHT22;5497;51.388;6.780;2022-11-20T02:33:03;2.40;99.90
10889;DHT22;5497;51.388;6.780;2022-11-20T02:35:41;2.40;99.90
10889;DHT22;5497;51.388;6.780;2022-11-20T02:41:37;2.50;99.90
10889;DHT22;5497;51.388;6.780;2022-11-20T02:44:05;2.60;99.90
10889;DHT22;5497;51.388;6.780;2022-11-20T02:46:32;2.60;99.90
10889;DHT22;5497;51.388;6.780;2022-11-20T02:49:00;2.70;99.90
10889;DHT22;5497;51.388;6.780;2022-11-20T02:51:27;2.70;99.90
10889;DHT22;5497;51.388;6.780;2022-11-20T02:53:54;2.60;99.90
10889;DHT22;5497;51.388;6.780;2022-11-20T02:56:22;2.60;99.90
10889;DHT22;5497;51.388;6.780;2022-11-20T02:58:50;2.60;99.90
10889;DHT22;5497;51.388;6.780;2022-11-20T03:01:18;2.60;99.90
10889;DHT22;5497;51.388;6.780;2022-11-20T03:03:44;2.60;99.90
10889;DHT22;5497;51.388;6.780;2022-11-20T03:06:14;2.50;99.90
10889;DHT22;5497;51.388;6.780;2022-11-20T03:08:41;2.50;99.90
10889;DHT22;5497;51.388;6.780;2022-11-20T03:11:08;2.50;99.90
10889;DHT22;5497;51.388;6.780;2022-11-20T03:13:35;2.60;99.90
10889;DHT22;5497;51.388;6.780;2022-11-20T03:16:07;2.70;99.90
10889;DHT22;5497;51.388;6.780;2022-11-20T03:18:34;2.70;99.90
10889;DHT22;5497;51.388;6.780;2022-11-20T03:21:01;2.70;99.90
10889;DHT22;5497;51.388;6.780;2022-11-20T03:23:29;2.70;99.90
10889;DHT22;5497;51.388;6.780;2022-11-20T03:25:56;2.80;99.90
10889;DHT22;5497;51.388;6.780;2022-11-20T03:28:23;2.80;99.90
10889;DHT22;5497;51.388;6.780;2022-11-20T03:30:50;2.80;99.90
10889;DHT22;5497;51.388;6.780;2022-11-20T03:33:18;2.90;99.90
10889;DHT22;5497;51.388;6.780;2022-11-20T03:35:45;3.00;99.90
10889;DHT22;5497;51.388;6.780;2022-11-20T03:38:12;2.90;99.90
10889;DHT22;5497;51.388;6.780;2022-11-20T03:40:39;3.00;99.90
10889;DHT22;5497;51.388;6.780;2022-11-20T03:43:06;3.00;99.90
10889;DHT22;5497;51.388;6.780;2022-11-20T03:45:33;3.00;99.90
10889;DHT22;5497;51.388;6.780;2022-11-20T03:48:01;3.10;99.90
10889;DHT22;5497;51.388;6.780;2022-11-20T03:50:29;3.10;99.90
10889;DHT22;5497;51.388;6.780;2022-11-20T03:52:56;3.10;99.90
10889;DHT22;5497;51.388;6.780;2022-11-20T03:55:23;3.10;99.90
10889;DHT22;5497;51.388;6.780;2022-11-20T03:57:50;3.10;99.90
10889;DHT22;5497;51.388;6.780;2022-11-20T04:00:18;3.10;99.90
10889;DHT22;5497;51.388;6.780;2022-11-20T04:02:45;3.20;99.90
10889;DHT22;5497;51.388;6.780;2022-11-20T04:05:12;3.20;99.90
10889;DHT22;5497;51.388;6.780;2022-11-20T04:07:41;3.20;99.90
10889;DHT22;5497;51.388;6.780;2022-11-20T04:10:08;3.30;99.90
10889;DHT22;5497;51.388;6.780;2022-11-20T04:12:35;3.30;99.90
10889;DHT22;5497;51.388;6.780;2022-11-20T04:15:02;3.30;99.90
10889;DHT22;5497;51.388;6.780;2022-11-20T04:17:29;3.30;99.90
10889;DHT22;5497;51.388;6.780;2022-11-20T04:19:56;3.30;99.90
10889;DHT22;5497;51.388;6.780;2022-11-20T04:22:23;3.30;99.90
10889;DHT22;5497;51.388;6.780;2022-11-20T04:24:51;3.40;99.90
10889;DHT22;5497;51.388;6.780;2022-11-20T04:27:18;3.30;99.90
10889;DHT22;5497;51.388;6.780;2022-11-20T04:29:45;3.30;99.90
10889;DHT22;5497;51.388;6.780;2022-11-20T04:32:12;3.20;99.90
10889;DHT22;5497;51.388;6.780;2022-11-20T04:34:39;3.20;99.90
10889;DHT22;5497;51.388;6.780;2022-11-20T04:37:07;3.20;99.90
10889;DHT22;5497;51.388;6.780;2022-11-20T04:39:33;3.20;99.90
10889;DHT22;5497;51.388;6.780;2022-11-20T04:42:02;3.20;99.90
10889;DHT22;5497;51.388;6.780;2022-11-20T04:44:46;3.20;99.90
10889;DHT22;5497;51.388;6.780;2022-11-20T04:47:13;3.30;99.90
10889;DHT22;5497;51.388;6.780;2022-11-20T04:49:40;3.30;99.90
10889;DHT22;5497;51.388;6.780;2022-11-20T04:52:07;3.40;99.90
10889;DHT22;5497;51.388;6.780;2022-11-20T04:54:35;3.40;99.90
10889;DHT22;5497;51.388;6.780;2022-11-20T04:57:04;3.40;99.90
10889;DHT22;5497;51.388;6.780;2022-11-20T04:59:31;3.50;99.90
10889;DHT22;5497;51.388;6.780;2022-11-20T05:01:58;3.50;99.90
10889;DHT22;5497;51.388;6.780;2022-11-20T05:04:25;3.60;99.90
10889;DHT22;5497;51.388;6.780;2022-11-20T05:06:51;3.60;99.90
10889;DHT22;5497;51.388;6.780;2022-11-20T05:09:18;3.70;99.90
10889;DHT22;5497;51.388;6.780;2022-11-20T05:11:45;3.70;99.90
10889;DHT22;5497;51.388;6.780;2022-11-20T05:14:14;3.70;99.90
10889;DHT22;5497;51.388;6.780;2022-11-20T05:16:41;3.80;99.90
10889;DHT22;5497;51.388;6.780;2022-11-20T05:19:07;3.80;99.90
10889;DHT22;5497;51.388;6.780;2022-11-20T05:21:34;3.80;99.90
10889;DHT22;5497;51.388;6.780;2022-11-20T05:24:01;3.80;99.90
10889;DHT22;5497;51.388;6.780;2022-11-20T05:26:28;3.80;99.90
10889;DHT22;5497;51.388;6.780;2022-11-20T05:28:55;3.70;99.90
10889;DHT22;5497;51.388;6.780;2022-11-20T05:31:24;3.80;99.90
10889;DHT22;5497;51.388;6.780;2022-11-20T05:33:51;3.80;99.90
10889;DHT22;5497;51.388;6.780;2022-11-20T05:36:18;3.80;99.90
10889;DHT22;5497;51.388;6.780;2022-11-20T05:38:45;3.80;99.90
10889;DHT22;5497;51.388;6.780;2022-11-20T05:41:12;3.80;99.90
10889;DHT22;5497;51.388;6.780;2022-11-20T05:43:40;3.90;99.90
10889;DHT22;5497;51.388;6.780;2022-11-20T05:46:08;3.90;99.90
10889;DHT22;5497;51.388;6.780;2022-11-20T05:48:36;3.90;99.90
10889;DHT22;5497;51.388;6.780;2022-11-20T05:51:04;3.90;99.90
10889;DHT22;5497;51.388;6.780;2022-11-20T05:53:32;3.90;99.90
10889;DHT22;5497;51.388;6.780;2022-11-20T05:55:59;3.80;99.90
10889;DHT22;5497;51.388;6.780;2022-11-20T05:58:26;3.80;99.90
10889;DHT22;5497;51.388;6.780;2022-11-20T06:00:53;3.80;99.90
10889;DHT22;5497;51.388;6.780;2022-11-20T06:03:20;3.80;99.90
10889;DHT22;5497;51.388;6.780;2022-11-20T06:05:48;3.80;99.90
10889;DHT22;5497;51.388;6.780;2022-11-20T06:08:15;3.80;99.90
10889;DHT22;5497;51.388;6.780;2022-11-20T06:10:42;3.80;99.90
10889;DHT22;5497;51.388;6.780;2022-11-20T06:13:09;3.80;99.90
10889;DHT22;5497;51.388;6.780;2022-11-20T06:15:36;3.80;99.90
10889;DHT22;5497;51.388;6.780;2022-11-20T06:18:03;3.80;99.90
10889;DHT22;5497;51.388;6.780;2022-11-20T06:20:30;3.90;99.90
10889;DHT22;5497;51.388;6.780;2022-11-20T06:22:58;3.90;99.90
10889;DHT22;5497;51.388;6.780;2022-11-20T06:25:25;3.90;99.90
10889;DHT22;5497;51.388;6.780;2022-11-20T06:27:52;3.90;99.90
10889;DHT22;5497;51.388;6.780;2022-11-20T06:30:19;3.90;99.90
10889;DHT22;5497;51.388;6.780;2022-11-20T06:32:46;3.90;99.90
10889;DHT22;5497;51.388;6.780;2022-11-20T06:35:14;3.90;99.90
10889;DHT22;5497;51.388;6.780;2022-11-20T06:37:41;3.80;99.90
10889;DHT22;5497;51.388;6.780;2022-11-20T06:40:11;3.80;99.90
10889;DHT22;5497;51.388;6.780;2022-11-20T06:42:38;3.90;99.90
10889;DHT22;5497;51.388;6.780;2022-11-20T06:45:05;3.90;99.90
10889;DHT22;5497;51.388;6.780;2022-11-20T06:47:32;3.90;99.90
10889;DHT22;5497;51.388;6.780;2022-11-20T06:49:59;3.90;99.90
10889;DHT22;5497;51.388;6.780;2022-11-20T06:52:26;3.80;99.90
10889;DHT22;5497;51.388;6.780;2022-11-20T06:54:53;3.90;99.90
10889;DHT22;5497;51.388;6.780;2022-11-20T06:57:21;3.90;99.90
10889;DHT22;5497;51.388;6.780;2022-11-20T06:59:48;3.90;99.90
10889;DHT22;5497;51.388;6.780;2022-11-20T07:02:15;3.90;99.90
10889;DHT22;5497;51.388;6.780;2022-11-20T07:04:42;3.90;99.90
10889;DHT22;5497;51.388;6.780;2022-11-20T07:07:09;3.80;99.90
10889;DHT22;5497;51.388;6.780;2022-11-20T07:09:36;3.70;99.90
10889;DHT22;5497;51.388;6.780;2022-11-20T07:12:03;3.70;99.90
10889;DHT22;5497;51.388;6.780;2022-11-20T07:14:32;3.70;99.90
10889;DHT22;5497;51.388;6.780;2022-11-20T07:16:59;3.70;99.90
10889;DHT22;5497;51.388;6.780;2022-11-20T07:19:26;3.60;99.90
10889;DHT22;5497;51.388;6.780;2022-11-20T07:21:52;3.60;99.90
10889;DHT22;5497;51.388;6.780;2022-11-20T07:24:20;3.60;99.90
10889;DHT22;5497;51.388;6.780;2022-11-20T07:26:47;3.60;99.90
10889;DHT22;5497;51.388;6.780;2022-11-20T07:29:14;3.70;99.90
10889;DHT22;5497;51.388;6.780;2022-11-20T07:31:43;3.70;99.90
10889;DHT22;5497;51.388;6.780;2022-11-20T07:34:11;3.90;99.90
10889;DHT22;5497;51.388;6.780;2022-11-20T07:36:46;3.90;99.90
10889;DHT22;5497;51.388;6.780;2022-11-20T07:39:13;4.00;99.90
10889;DHT22;5497;51.388;6.780;2022-11-20T07:41:40;4.10;99.90
10889;DHT22;5497;51.388;6.780;2022-11-20T07:44:07;4.20;99.90
10889;DHT22;5497;51.388;6.780;2022-11-20T07:46:35;4.30;99.90
10889;DHT22;5497;51.388;6.780;2022-11-20T07:49:06;4.30;99.90
10889;DHT22;5497;51.388;6.780;2022-11-20T07:51:33;4.20;99.90
10889;DHT22;5497;51.388;6.780;2022-11-20T07:54:00;4.30;99.90
10889;DHT22;5497;51.388;6.780;2022-11-20T07:56:27;4.20;99.90
10889;DHT22;5497;51.388;6.780;2022-11-20T07:58:58;4.20;99.90
10889;DHT22;5497;51.388;6.780;2022-11-20T08:01:25;4.20;99.90
10889;DHT22;5497;51.388;6.780;2022-11-20T08:03:52;4.20;99.90
10889;DHT22;5497;51.388;6.780;2022-11-20T08:06:20;4.30;99.90
10889;DHT22;5497;51.388;6.780;2022-11-20T08:08:49;4.30;99.90
10889;DHT22;5497;51.388;6.780;2022-11-20T08:11:16;4.40;99.90
10889;DHT22;5497;51.388;6.780;2022-11-20T08:14:01;4.50;99.90
10889;DHT22;5497;51.388;6.780;2022-11-20T08:16:42;4.60;99.90
10889;DHT22;5497;51.388;6.780;2022-11-20T08:19:09;4.60;99.90
10889;DHT22;5497;51.388;6.780;2022-11-20T08:21:37;4.70;99.90
10889;DHT22;5497;51.388;6.780;2022-11-20T08:24:05;4.70;99.90
10889;DHT22;5497;51.388;6.780;2022-11-20T08:26:32;4.80;99.90
10889;DHT22;5497;51.388;6.780;2022-11-20T08:29:00;4.80;99.90
10889;DHT22;5497;51.388;6.780;2022-11-20T08:31:27;4.90;99.90
10889;DHT22;5497;51.388;6.780;2022-11-20T08:33:54;4.90;99.90
10889;DHT22;5497;51.388;6.780;2022-11-20T08:36:22;4.80;99.90
10889;DHT22;5497;51.388;6.780;2022-11-20T08:38:51;5.00;99.90
10889;DHT22;5497;51.388;6.780;2022-11-20T08:41:19;5.00;99.90
10889;DHT22;5497;51.388;6.780;2022-11-20T08:43:53;5.10;99.90
10889;DHT22;5497;51.388;6.780;2022-11-20T08:46:20;5.20;99.90
10889;DHT22;5497;51.388;6.780;2022-11-20T08:48:47;5.20;99.90
10889;DHT22;5497;51.388;6.780;2022-11-20T08:51:15;5.30;99.90
10889;DHT22;5497;51.388;6.780;2022-11-20T08:53:43;5.30;99.90
10889;DHT22;5497;51.388;6.780;2022-11-20T08:56:12;5.40;99.90
10889;DHT22;5497;51.388;6.780;2022-11-20T08:58:40;5.50;99.90
10889;DHT22;5497;51.388;6.780;2022-11-20T09:01:07;5.50;99.90
10889;DHT22;5497;51.388;6.780;2022-11-20T09:03:34;5.50;99.90
10889;DHT22;5497;51.388;6.780;2022-11-20T09:06:02;5.60;99.90
10889;DHT22;5497;51.388;6.780;2022-11-20T09:08:29;5.60;99.90
10889;DHT22;5497;51.388;6.780;2022-11-20T09:10:57;5.60;99.90
10889;DHT22;5497;51.388;6.780;2022-11-20T09:13:28;5.60;99.90
10889;DHT22;5497;51.388;6.780;2022-11-20T09:15:56;5.60;99.90
10889;DHT22;5497;51.388;6.780;2022-11-20T09:18:23;5.70;99.90
10889;DHT22;5497;51.388;6.780;2022-11-20T09:20:51;5.80;99.90
10889;DHT22;5497;51.388;6.780;2022-11-20T09:23:19;5.80;99.90
10889;DHT22;5497;51.388;6.780;2022-11-20T09:25:46;5.90;99.90
10889;DHT22;5497;51.388;6.780;2022-11-20T09:28:13;5.90;99.90
10889;DHT22;5497;51.388;6.780;2022-11-20T09:30:41;5.90;99.90
10889;DHT22;5497;51.388;6.780;2022-11-20T09:33:08;6.00;99.90
10889;DHT22;5497;51.388;6.780;2022-11-20T09:35:35;6.00;99.90
10889;DHT22;5497;51.388;6.780;2022-11-20T09:38:06;6.00;99.90
10889;DHT22;5497;51.388;6.780;2022-11-20T09:40:34;5.80;99.90
10889;DHT22;5497;51.388;6.780;2022-11-20T09:43:03;5.80;99.90
10889;DHT22;5497;51.388;6.780;2022-11-20T09:45:37;5.70;99.90
10889;DHT22;5497;51.388;6.780;2022-11-20T09:48:18;5.70;99.90
10889;DHT22;5497;51.388;6.780;2022-11-20T09:50:55;5.70;99.90
10889;DHT22;5497;51.388;6.780;2022-11-20T09:53:27;5.70;99.90
10889;DHT22;5497;51.388;6.780;2022-11-20T09:55:55;5.80;99.90
10889;DHT22;5497;51.388;6.780;2022-11-20T09:58:25;5.80;99.90
10889;DHT22;5497;51.388;6.780;2022-11-20T10:00:55;6.00;99.90
10889;DHT22;5497;51.388;6.780;2022-11-20T10:03:32;6.10;99.90
10889;DHT22;5497;51.388;6.780;2022-11-20T10:06:02;6.20;99.90
10889;DHT22;5497;51.388;6.780;2022-11-20T10:08:31;6.40;99.90
10889;DHT22;5497;51.388;6.780;2022-11-20T10:11:04;6.50;99.90
10889;DHT22;5497;51.388;6.780;2022-11-20T10:13:35;6.60;99.90
10889;DHT22;5497;51.388;6.780;2022-11-20T10:16:11;6.70;99.90
10889;DHT22;5497;51.388;6.780;2022-11-20T10:18:45;6.70;99.90
10889;DHT22;5497;51.388;6.780;2022-11-20T10:21:17;6.80;99.90
10889;DHT22;5497;51.388;6.780;2022-11-20T10:23:56;6.80;99.90
10889;DHT22;5497;51.388;6.780;2022-11-20T10:26:29;6.90;99.90
10889;DHT22;5497;51.388;6.780;2022-11-20T10:29:02;7.00;99.90
10889;DHT22;5497;51.388;6.780;2022-11-20T10:31:33;6.90;99.90
10889;DHT22;5497;51.388;6.780;2022-11-20T10:34:03;7.00;99.90
10889;DHT22;5497;51.388;6.780;2022-11-20T10:36:33;7.00;99.90
10889;DHT22;5497;51.388;6.780;2022-11-20T10:39:03;7.00;99.90
10889;DHT22;5497;51.388;6.780;2022-11-20T10:41:33;7.10;99.90
10889;DHT22;5497;51.388;6.780;2022-11-20T10:44:02;7.20;99.90
10889;DHT22;5497;51.388;6.780;2022-11-20T10:46:34;7.30;99.90
10889;DHT22;5497;51.388;6.780;2022-11-20T10:49:09;7.30;99.90
10889;DHT22;5497;51.388;6.780;2022-11-20T10:51:39;7.50;99.90
10889;DHT22;5497;51.388;6.780;2022-11-20T10:54:12;7.60;99.90
10889;DHT22;5497;51.388;6.780;2022-11-20T10:56:40;7.70;99.90
10889;DHT22;5497;51.388;6.780;2022-11-20T10:59:12;7.80;99.90
10889;DHT22;5497;51.388;6.780;2022-11-20T11:01:42;7.90;99.90
10889;DHT22;5497;51.388;6.780;2022-11-20T11:04:18;7.80;99.90
10889;DHT22;5497;51.388;6.780;2022-11-20T11:06:46;7.70;99.90
10889;DHT22;5497;51.388;6.780;2022-11-20T11:09:15;7.50;99.90
10889;DHT22;5497;51.388;6.780;2022-11-20T11:11:44;7.40;99.90
10889;DHT22;5497;51.388;6.780;2022-11-20T11:14:11;7.30;99.90
10889;DHT22;5497;51.388;6.780;2022-11-20T11:16:48;7.10;99.90
10889;DHT22;5497;51.388;6.780;2022-11-20T11:19:17;7.10;99.90
10889;DHT22;5497;51.388;6.780;2022-11-20T11:21:45;7.10;99.90
10889;DHT22;5497;51.388;6.780;2022-11-20T11:24:16;7.00;99.90
10889;DHT22;5497;51.388;6.780;2022-11-20T11:26:50;7.00;99.90
10889;DHT22;5497;51.388;6.780;2022-11-20T11:29:21;7.00;99.90
10889;DHT22;5497;51.388;6.780;2022-11-20T11:31:48;7.00;99.90
10889;DHT22;5497;51.388;6.780;2022-11-20T11:34:16;7.10;99.90
10889;DHT22;5497;51.388;6.780;2022-11-20T11:36:49;7.20;99.90
10889;DHT22;5497;51.388;6.780;2022-11-20T11:39:19;7.30;99.90
10889;DHT22;5497;51.388;6.780;2022-11-20T11:41:47;7.40;99.90
10889;DHT22;5497;51.388;6.780;2022-11-20T11:44:15;7.40;99.90
10889;DHT22;5497;51.388;6.780;2022-11-20T11:47:02;7.80;99.90
10889;DHT22;5497;51.388;6.780;2022-11-20T11:49:31;7.50;99.90
10889;DHT22;5497;51.388;6.780;2022-11-20T11:52:04;7.40;99.90
10889;DHT22;5497;51.388;6.780;2022-11-20T11:54:36;7.30;99.90
10889;DHT22;5497;51.388;6.780;2022-11-20T11:57:07;7.20;99.90
10889;DHT22;5497;51.388;6.780;2022-11-20T11:59:40;7.10;99.90
10889;DHT22;5497;51.388;6.780;2022-11-20T12:02:12;7.00;99.90
10889;DHT22;5497;51.388;6.780;2022-11-20T12:04:43;7.00;99.90
10889;DHT22;5497;51.388;6.780;2022-11-20T12:07:15;7.00;99.90
10889;DHT22;5497;51.388;6.780;2022-11-20T12:09:46;7.00;99.90
10889;DHT22;5497;51.388;6.780;2022-11-20T12:12:16;7.10;99.90
10889;DHT22;5497;51.388;6.780;2022-11-20T12:14:45;7.10;99.90
10889;DHT22;5497;51.388;6.780;2022-11-20T12:17:13;7.20;99.90
10889;DHT22;5497;51.388;6.780;2022-11-20T12:19:48;7.20;99.90
10889;DHT22;5497;51.388;6.780;2022-11-20T12:22:31;7.20;99.90
10889;DHT22;5497;51.388;6.780;2022-11-20T12:25:06;7.30;99.90
10889;DHT22;5497;51.388;6.780;2022-11-20T12:27:39;7.30;99.90
10889;DHT22;5497;51.388;6.780;2022-11-20T12:30:10;7.30;99.90
10889;DHT22;5497;51.388;6.780;2022-11-20T12:32:46;7.20;99.90
10889;DHT22;5497;51.388;6.780;2022-11-20T12:35:21;7.20;99.90
10889;DHT22;5497;51.388;6.780;2022-11-20T12:37:57;7.20;99.90
10889;DHT22;5497;51.388;6.780;2022-11-20T12:40:32;7.10;99.90
10889;DHT22;5497;51.388;6.780;2022-11-20T12:43:04;7.10;99.90
10889;DHT22;5497;51.388;6.780;2022-11-20T12:46:05;7.10;99.90
10889;DHT22;5497;51.388;6.780;2022-11-20T12:48:44;7.10;99.90
10889;DHT22;5497;51.388;6.780;2022-11-20T12:51:19;7.10;99.90
10889;DHT22;5497;51.388;6.780;2022-11-20T12:53:53;7.20;99.90
10889;DHT22;5497;51.388;6.780;2022-11-20T12:56:25;7.20;99.90
10889;DHT22;5497;51.388;6.780;2022-11-20T12:58:59;7.20;99.90
10889;DHT22;5497;51.388;6.780;2022-11-20T13:01:30;7.20;99.90
10889;DHT22;5497;51.388;6.780;2022-11-20T13:04:12;7.20;99.90
10889;DHT22;5497;51.388;6.780;2022-11-20T13:06:43;7.20;99.90
10889;DHT22;5497;51.388;6.780;2022-11-20T13:09:13;7.10;99.90
10889;DHT22;5497;51.388;6.780;2022-11-20T13:11:41;7.10;99.90
10889;DHT22;5497;51.388;6.780;2022-11-20T13:14:16;7.00;99.90
10889;DHT22;5497;51.388;6.780;2022-11-20T13:16:48;7.00;99.90
10889;DHT22;5497;51.388;6.780;2022-11-20T13:19:16;7.00;99.90
10889;DHT22;5497;51.388;6.780;2022-11-20T13:21:45;6.90;99.90
10889;DHT22;5497;51.388;6.780;2022-11-20T13:24:24;6.90;99.90
10889;DHT22;5497;51.388;6.780;2022-11-20T13:29:43;6.90;99.90
10889;DHT22;5497;51.388;6.780;2022-11-20T13:32:14;6.80;99.90
10889;DHT22;5497;51.388;6.780;2022-11-20T13:34:51;6.70;99.90
10889;DHT22;5497;51.388;6.780;2022-11-20T13:37:25;6.50;99.90
10889;DHT22;5497;51.388;6.780;2022-11-20T13:40:04;6.50;99.90
10889;DHT22;5497;51.388;6.780;2022-11-20T13:42:32;6.40;99.90
10889;DHT22;5497;51.388;6.780;2022-11-20T13:45:07;6.40;99.90
10889;DHT22;5497;51.388;6.780;2022-11-20T13:47:35;6.40;99.90
10889;DHT22;5497;51.388;6.780;2022-11-20T13:50:02;6.30;99.90
10889;DHT22;5497;51.388;6.780;2022-11-20T13:52:35;6.30;99.90
10889;DHT22;5497;51.388;6.780;2022-11-20T13:55:10;6.30;99.90
10889;DHT22;5497;51.388;6.780;2022-11-20T13:57:52;6.30;99.90
10889;DHT22;5497;51.388;6.780;2022-11-20T14:00:21;5.20;99.90
10889;DHT22;5497;51.388;6.780;2022-11-20T14:02:57;6.30;99.90
10889;DHT22;5497;51.388;6.780;2022-11-20T14:05:26;6.30;99.90
10889;DHT22;5497;51.388;6.780;2022-11-20T14:07:53;6.40;99.90
10889;DHT22;5497;51.388;6.780;2022-11-20T14:10:23;6.40;99.90
10889;DHT22;5497;51.388;6.780;2022-11-20T14:12:51;6.40;99.90
10889;DHT22;5497;51.388;6.780;2022-11-20T14:15:25;6.30;99.90
10889;DHT22;5497;51.388;6.780;2022-11-20T14:17:53;6.30;99.90
10889;DHT22;5497;51.388;6.780;2022-11-20T14:20:20;6.20;99.90
10889;DHT22;5497;51.388;6.780;2022-11-20T14:22:51;6.30;99.90
10889;DHT22;5497;51.388;6.780;2022-11-20T14:25:21;6.30;99.90
10889;DHT22;5497;51.388;6.780;2022-11-20T14:27:55;6.30;99.90
10889;DHT22;5497;51.388;6.780;2022-11-20T14:30:23;6.20;99.90
10889;DHT22;5497;51.388;6.780;2022-11-20T14:32:53;6.20;99.90
10889;DHT22;5497;51.388;6.780;2022-11-20T14:35:24;6.30;99.90
10889;DHT22;5497;51.388;6.780;2022-11-20T14:37:52;6.30;99.90
10889;DHT22;5497;51.388;6.780;2022-11-20T14:40:25;6.30;99.90
10889;DHT22;5497;51.388;6.780;2022-11-20T14:42:53;6.20;99.90
10889;DHT22;5497;51.388;6.780;2022-11-20T14:45:21;6.20;99.90
10889;DHT22;5497;51.388;6.780;2022-11-20T14:47:48;6.10;99.90
10889;DHT22;5497;51.388;6.780;2022-11-20T14:50:18;6.10;99.90
10889;DHT22;5497;51.388;6.780;2022-11-20T14:52:53;6.10;99.90
10889;DHT22;5497;51.388;6.780;2022-11-20T14:55:27;6.10;99.90
10889;DHT22;5497;51.388;6.780;2022-11-20T14:57:55;6.10;99.90
10889;DHT22;5497;51.388;6.780;2022-11-20T15:00:24;6.00;99.90
10889;DHT22;5497;51.388;6.780;2022-11-20T15:02:52;6.00;99.90
10889;DHT22;5497;51.388;6.780;2022-11-20T15:05:20;6.00;99.90
10889;DHT22;5497;51.388;6.780;2022-11-20T15:07:49;5.90;99.90
10889;DHT22;5497;51.388;6.780;2022-11-20T15:10:22;5.90;99.90
10889;DHT22;5497;51.388;6.780;2022-11-20T15:12:50;5.90;99.90
10889;DHT22;5497;51.388;6.780;2022-11-20T15:15:19;5.90;99.90
10889;DHT22;5497;51.388;6.780;2022-11-20T15:17:48;5.90;99.90
10889;DHT22;5497;51.388;6.780;2022-11-20T15:20:16;5.90;99.90
10889;DHT22;5497;51.388;6.780;2022-11-20T15:22:46;5.90;99.90
10889;DHT22;5497;51.388;6.780;2022-11-20T15:25:14;5.90;99.90
10889;DHT22;5497;51.388;6.780;2022-11-20T15:27:41;5.90;99.90
10889;DHT22;5497;51.388;6.780;2022-11-20T15:30:15;5.90;99.90
10889;DHT22;5497;51.388;6.780;2022-11-20T15:32:42;5.90;99.90
10889;DHT22;5497;51.388;6.780;2022-11-20T15:35:11;5.90;99.90
10889;DHT22;5497;51.388;6.780;2022-11-20T15:37:38;5.90;99.90
10889;DHT22;5497;51.388;6.780;2022-11-20T15:40:06;5.90;99.90
10889;DHT22;5497;51.388;6.780;2022-11-20T15:42:33;5.90;99.90
10889;DHT22;5497;51.388;6.780;2022-11-20T15:45:00;5.90;99.90
10889;DHT22;5497;51.388;6.780;2022-11-20T15:47:28;6.00;99.90
10889;DHT22;5497;51.388;6.780;2022-11-20T15:49:56;6.00;99.90
10889;DHT22;5497;51.388;6.780;2022-11-20T15:52:25;6.00;99.90
10889;DHT22;5497;51.388;6.780;2022-11-20T15:54:52;6.00;99.90
10889;DHT22;5497;51.388;6.780;2022-11-20T15:57:20;6.00;99.90
10889;DHT22;5497;51.388;6.780;2022-11-20T15:59:47;6.00;99.90
10889;DHT22;5497;51.388;6.780;2022-11-20T16:02:14;6.00;99.90
10889;DHT22;5497;51.388;6.780;2022-11-20T16:04:41;6.00;99.90
10889;DHT22;5497;51.388;6.780;2022-11-20T16:07:08;5.90;99.90
10889;DHT22;5497;51.388;6.780;2022-11-20T16:09:37;5.90;99.90
10889;DHT22;5497;51.388;6.780;2022-11-20T16:12:04;5.90;99.90
10889;DHT22;5497;51.388;6.780;2022-11-20T16:14:32;5.90;99.90
10889;DHT22;5497;51.388;6.780;2022-11-20T16:17:16;5.90;99.90
10889;DHT22;5497;51.388;6.780;2022-11-20T16:20:05;6.00;99.90
10889;DHT22;5497;51.388;6.780;2022-11-20T16:22:32;6.00;99.90